sensor_id;sensor_type;location;lat;lon;timestamp;P1;durP1;ratioP1;P2;durP2;ratioP2
22711;SDS011;11523;50.390;8.072;2022-12-18T03:16:17;49.58;;;22.27;;
22711;SDS011;11523;50.390;8.072;2022-12-18T03:18:56;42.83;;;21.13;;
22711;SDS011;11523;50.390;8.072;2022-12-18T03:21:26;43.90;;;21.50;;
22711;SDS011;11523;50.390;8.072;2022-12-18T03:23:54;44.90;;;22.45;;
22711;SDS011;11523;50.390;8.072;2022-12-18T03:26:21;44.10;;;21.95;;
22711;SDS011;11523;50.390;8.072;2022-12-18T03:29:31;45.00;;;20.80;;
22711;SDS011;11523;50.390;8.072;2022-12-18T03:31:37;50.03;;;21.77;;
22711;SDS011;11523;50.390;8.072;2022-12-18T03:34:08;45.10;;;22.45;;
22711;SDS011;11523;50.390;8.072;2022-12-18T03:36:35;43.15;;;21.42;;
22711;SDS011;11523;50.390;8.072;2022-12-18T03:39:01;44.85;;;21.25;;
22711;SDS011;11523;50.390;8.072;2022-12-18T03:41:33;44.08;;;20.55;;
22711;SDS011;11523;50.390;8.072;2022-12-18T03:44:07;42.05;;;20.15;;
22711;SDS011;11523;50.390;8.072;2022-12-18T03:49:09;47.75;;;21.85;;
22711;SDS011;11523;50.390;8.072;2022-12-18T03:51:39;49.72;;;21.52;;
22711;SDS011;11523;50.390;8.072;2022-12-18T03:54:06;45.80;;;21.55;;
22711;SDS011;11523;50.390;8.072;2022-12-18T03:56:36;43.22;;;20.33;;
22711;SDS011;11523;50.390;8.072;2022-12-18T03:59:03;44.45;;;21.73;;
22711;SDS011;11523;50.390;8.072;2022-12-18T04:01:31;47.53;;;21.58;;
22711;SDS011;11523;50.390;8.072;2022-12-18T04:03:58;44.83;;;20.67;;
22711;SDS011;11523;50.390;8.072;2022-12-18T04:06:26;43.17;;;21.48;;
22711;SDS011;11523;50.390;8.072;2022-12-18T04:08:52;49.03;;;21.55;;
22711;SDS011;11523;50.390;8.072;2022-12-18T04:56:15;45.22;;;20.38;;
22711;SDS011;11523;50.390;8.072;2022-12-18T04:58:48;42.97;;;19.95;;
22711;SDS011;11523;50.390;8.072;2022-12-18T05:01:14;39.90;;;20.42;;
22711;SDS011;11523;50.390;8.072;2022-12-18T05:03:40;48.33;;;22.48;;
22711;SDS011;11523;50.390;8.072;2022-12-18T05:06:06;43.60;;;20.55;;
22711;SDS011;11523;50.390;8.072;2022-12-18T05:08:32;49.73;;;22.23;;
22711;SDS011;11523;50.390;8.072;2022-12-18T05:11:03;46.60;;;21.38;;
22711;SDS011;11523;50.390;8.072;2022-12-18T05:13:29;42.85;;;20.30;;
22711;SDS011;11523;50.390;8.072;2022-12-18T05:15:55;42.38;;;20.13;;
22711;SDS011;11523;50.390;8.072;2022-12-18T05:18:22;47.58;;;20.63;;
22711;SDS011;11523;50.390;8.072;2022-12-18T05:20:49;42.70;;;20.70;;
22711;SDS011;11523;50.390;8.072;2022-12-18T05:23:15;38.22;;;19.00;;
22711;SDS011;11523;50.390;8.072;2022-12-18T05:25:41;41.30;;;19.30;;
22711;SDS011;11523;50.390;8.072;2022-12-18T05:28:07;41.75;;;19.95;;
22711;SDS011;11523;50.390;8.072;2022-12-18T05:30:33;45.45;;;20.50;;
22711;SDS011;11523;50.390;8.072;2022-12-18T05:32:59;43.10;;;19.48;;
22711;SDS011;11523;50.390;8.072;2022-12-18T05:35:25;44.05;;;19.40;;
22711;SDS011;11523;50.390;8.072;2022-12-18T05:37:50;39.58;;;19.08;;
22711;SDS011;11523;50.390;8.072;2022-12-18T05:40:16;37.55;;;18.85;;
22711;SDS011;11523;50.390;8.072;2022-12-18T05:42:42;44.25;;;19.67;;
22711;SDS011;11523;50.390;8.072;2022-12-18T05:45:08;43.78;;;19.55;;
22711;SDS011;11523;50.390;8.072;2022-12-18T05:47:34;42.25;;;20.60;;
22711;SDS011;11523;50.390;8.072;2022-12-18T05:50:00;41.47;;;20.63;;
22711;SDS011;11523;50.390;8.072;2022-12-18T05:52:26;46.75;;;21.50;;
22711;SDS011;11523;50.390;8.072;2022-12-18T05:54:52;44.65;;;19.77;;
22711;SDS011;11523;50.390;8.072;2022-12-18T05:57:18;38.50;;;19.63;;
22711;SDS011;11523;50.390;8.072;2022-12-18T05:59:44;35.72;;;19.00;;
22711;SDS011;11523;50.390;8.072;2022-12-18T06:02:10;43.83;;;21.00;;
22711;SDS011;11523;50.390;8.072;2022-12-18T06:04:36;46.90;;;20.30;;
22711;SDS011;11523;50.390;8.072;2022-12-18T06:07:02;39.75;;;19.80;;
22711;SDS011;11523;50.390;8.072;2022-12-18T06:09:28;41.50;;;19.70;;
22711;SDS011;11523;50.390;8.072;2022-12-18T06:11:54;39.78;;;19.92;;
22711;SDS011;11523;50.390;8.072;2022-12-18T06:14:20;43.80;;;21.02;;
22711;SDS011;11523;50.390;8.072;2022-12-18T06:16:46;40.67;;;20.30;;
22711;SDS011;11523;50.390;8.072;2022-12-18T06:19:15;42.35;;;20.73;;
22711;SDS011;11523;50.390;8.072;2022-12-18T06:21:41;42.55;;;20.13;;
22711;SDS011;11523;50.390;8.072;2022-12-18T06:24:07;39.53;;;19.30;;
22711;SDS011;11523;50.390;8.072;2022-12-18T06:26:33;38.60;;;19.02;;
22711;SDS011;11523;50.390;8.072;2022-12-18T06:28:59;45.03;;;20.55;;
22711;SDS011;11523;50.390;8.072;2022-12-18T06:31:25;47.78;;;20.00;;
22711;SDS011;11523;50.390;8.072;2022-12-18T06:33:51;41.03;;;19.25;;
22711;SDS011;11523;50.390;8.072;2022-12-18T06:36:17;41.50;;;19.67;;
22711;SDS011;11523;50.390;8.072;2022-12-18T06:38:44;40.42;;;19.77;;
22711;SDS011;11523;50.390;8.072;2022-12-18T06:41:11;39.17;;;18.67;;
22711;SDS011;11523;50.390;8.072;2022-12-18T06:43:38;43.67;;;19.80;;
22711;SDS011;11523;50.390;8.072;2022-12-18T06:46:04;43.42;;;18.77;;
22711;SDS011;11523;50.390;8.072;2022-12-18T06:48:30;37.45;;;19.42;;
22711;SDS011;11523;50.390;8.072;2022-12-18T06:50:56;39.72;;;19.30;;
22711;SDS011;11523;50.390;8.072;2022-12-18T06:53:22;44.78;;;18.50;;
22711;SDS011;11523;50.390;8.072;2022-12-18T06:55:48;41.30;;;19.27;;
22711;SDS011;11523;50.390;8.072;2022-12-18T06:58:14;44.25;;;19.88;;
22711;SDS011;11523;50.390;8.072;2022-12-18T07:00:40;44.10;;;20.30;;
22711;SDS011;11523;50.390;8.072;2022-12-18T07:03:07;42.55;;;19.98;;
22711;SDS011;11523;50.390;8.072;2022-12-18T07:05:33;42.75;;;18.92;;
22711;SDS011;11523;50.390;8.072;2022-12-18T07:07:58;38.88;;;18.13;;
22711;SDS011;11523;50.390;8.072;2022-12-18T07:10:24;39.78;;;19.38;;
22711;SDS011;11523;50.390;8.072;2022-12-18T07:12:50;42.78;;;18.80;;
22711;SDS011;11523;50.390;8.072;2022-12-18T07:15:16;42.65;;;19.42;;
22711;SDS011;11523;50.390;8.072;2022-12-18T07:17:42;39.95;;;19.10;;
22711;SDS011;11523;50.390;8.072;2022-12-18T07:20:08;39.72;;;17.88;;
22711;SDS011;11523;50.390;8.072;2022-12-18T07:22:34;38.05;;;19.10;;
22711;SDS011;11523;50.390;8.072;2022-12-18T07:25:00;38.70;;;18.73;;
22711;SDS011;11523;50.390;8.072;2022-12-18T07:27:26;42.25;;;19.20;;
22711;SDS011;11523;50.390;8.072;2022-12-18T07:29:52;41.42;;;19.85;;
22711;SDS011;11523;50.390;8.072;2022-12-18T07:32:18;40.20;;;19.70;;
22711;SDS011;11523;50.390;8.072;2022-12-18T07:34:44;37.28;;;18.85;;
22711;SDS011;11523;50.390;8.072;2022-12-18T07:37:10;41.03;;;19.02;;
22711;SDS011;11523;50.390;8.072;2022-12-18T07:39:36;40.97;;;18.75;;
22711;SDS011;11523;50.390;8.072;2022-12-18T07:42:02;40.95;;;20.38;;
22711;SDS011;11523;50.390;8.072;2022-12-18T07:44:46;37.15;;;18.27;;
22711;SDS011;11523;50.390;8.072;2022-12-18T07:47:12;40.90;;;18.90;;
22711;SDS011;11523;50.390;8.072;2022-12-18T07:49:38;56.67;;;24.35;;
22711;SDS011;11523;50.390;8.072;2022-12-18T07:52:04;52.97;;;23.23;;
22711;SDS011;11523;50.390;8.072;2022-12-18T07:54:30;66.38;;;28.80;;
22711;SDS011;11523;50.390;8.072;2022-12-18T07:56:56;50.83;;;22.42;;
22711;SDS011;11523;50.390;8.072;2022-12-18T07:59:22;46.15;;;21.15;;
22711;SDS011;11523;50.390;8.072;2022-12-18T08:01:48;47.55;;;21.42;;
22711;SDS011;11523;50.390;8.072;2022-12-18T08:04:14;42.20;;;19.88;;
22711;SDS011;11523;50.390;8.072;2022-12-18T08:06:40;42.53;;;19.08;;
22711;SDS011;11523;50.390;8.072;2022-12-18T08:09:06;40.63;;;18.50;;
22711;SDS011;11523;50.390;8.072;2022-12-18T08:11:33;35.70;;;18.15;;
22711;SDS011;11523;50.390;8.072;2022-12-18T08:13:59;40.88;;;18.45;;
22711;SDS011;11523;50.390;8.072;2022-12-18T08:16:25;42.58;;;20.27;;
22711;SDS011;11523;50.390;8.072;2022-12-18T08:18:51;42.97;;;19.77;;
22711;SDS011;11523;50.390;8.072;2022-12-18T08:21:19;40.00;;;18.15;;
22711;SDS011;11523;50.390;8.072;2022-12-18T08:23:47;44.08;;;20.02;;
22711;SDS011;11523;50.390;8.072;2022-12-18T08:26:13;43.53;;;19.95;;
22711;SDS011;11523;50.390;8.072;2022-12-18T08:28:40;48.88;;;23.08;;
22711;SDS011;11523;50.390;8.072;2022-12-18T08:31:06;45.30;;;21.80;;
22711;SDS011;11523;50.390;8.072;2022-12-18T08:33:32;50.05;;;23.08;;
22711;SDS011;11523;50.390;8.072;2022-12-18T08:35:58;49.90;;;22.85;;
22711;SDS011;11523;50.390;8.072;2022-12-18T08:38:24;50.28;;;23.13;;
22711;SDS011;11523;50.390;8.072;2022-12-18T08:40:57;52.03;;;26.27;;
22711;SDS011;11523;50.390;8.072;2022-12-18T08:43:24;50.75;;;23.55;;
22711;SDS011;11523;50.390;8.072;2022-12-18T08:46:08;50.78;;;23.63;;
22711;SDS011;11523;50.390;8.072;2022-12-18T08:48:34;56.22;;;24.50;;
22711;SDS011;11523;50.390;8.072;2022-12-18T08:51:00;54.53;;;23.58;;
22711;SDS011;11523;50.390;8.072;2022-12-18T08:53:26;56.15;;;24.95;;
22711;SDS011;11523;50.390;8.072;2022-12-18T08:55:52;48.65;;;23.27;;
22711;SDS011;11523;50.390;8.072;2022-12-18T08:58:19;46.33;;;21.13;;
22711;SDS011;11523;50.390;8.072;2022-12-18T09:00:45;52.70;;;23.38;;
22711;SDS011;11523;50.390;8.072;2022-12-18T09:03:14;54.95;;;25.45;;
22711;SDS011;11523;50.390;8.072;2022-12-18T09:05:40;46.72;;;21.25;;
22711;SDS011;11523;50.390;8.072;2022-12-18T09:08:06;46.83;;;22.02;;
22711;SDS011;11523;50.390;8.072;2022-12-18T09:10:32;49.17;;;23.67;;
22711;SDS011;11523;50.390;8.072;2022-12-18T09:12:58;43.17;;;21.83;;
22711;SDS011;11523;50.390;8.072;2022-12-18T09:15:24;52.13;;;23.38;;
22711;SDS011;11523;50.390;8.072;2022-12-18T09:17:51;58.60;;;27.40;;
22711;SDS011;11523;50.390;8.072;2022-12-18T09:20:17;48.83;;;25.17;;
22711;SDS011;11523;50.390;8.072;2022-12-18T09:22:43;48.35;;;24.00;;
22711;SDS011;11523;50.390;8.072;2022-12-18T09:25:09;48.08;;;22.88;;
22711;SDS011;11523;50.390;8.072;2022-12-18T09:27:35;47.17;;;25.55;;
22711;SDS011;11523;50.390;8.072;2022-12-18T09:30:02;47.88;;;25.35;;
22711;SDS011;11523;50.390;8.072;2022-12-18T09:32:28;47.60;;;22.15;;
22711;SDS011;11523;50.390;8.072;2022-12-18T09:34:54;45.75;;;22.58;;
22711;SDS011;11523;50.390;8.072;2022-12-18T09:37:20;46.63;;;23.23;;
22711;SDS011;11523;50.390;8.072;2022-12-18T09:39:46;47.03;;;22.85;;
22711;SDS011;11523;50.390;8.072;2022-12-18T09:42:22;47.20;;;23.73;;
22711;SDS011;11523;50.390;8.072;2022-12-18T09:44:49;43.60;;;21.58;;
22711;SDS011;11523;50.390;8.072;2022-12-18T09:47:17;50.95;;;23.02;;
22711;SDS011;11523;50.390;8.072;2022-12-18T09:49:45;45.75;;;22.75;;
22711;SDS011;11523;50.390;8.072;2022-12-18T09:52:13;47.33;;;21.70;;
22711;SDS011;11523;50.390;8.072;2022-12-18T09:54:41;44.95;;;21.52;;
22711;SDS011;11523;50.390;8.072;2022-12-18T09:57:18;48.13;;;22.55;;
22711;SDS011;11523;50.390;8.072;2022-12-18T09:59:54;47.83;;;23.63;;
22711;SDS011;11523;50.390;8.072;2022-12-18T10:02:24;48.97;;;24.42;;
22711;SDS011;11523;50.390;8.072;2022-12-18T10:05:02;47.38;;;24.00;;
22711;SDS011;11523;50.390;8.072;2022-12-18T10:07:32;43.28;;;22.67;;
22711;SDS011;11523;50.390;8.072;2022-12-18T10:10:04;47.58;;;26.23;;
22711;SDS011;11523;50.390;8.072;2022-12-18T10:12:46;51.28;;;27.13;;
22711;SDS011;11523;50.390;8.072;2022-12-18T10:25:55;42.25;;;22.17;;
22711;SDS011;11523;50.390;8.072;2022-12-18T10:28:32;44.92;;;23.30;;
22711;SDS011;11523;50.390;8.072;2022-12-18T10:30:58;34.05;;;18.17;;
22711;SDS011;11523;50.390;8.072;2022-12-18T10:33:27;44.03;;;24.38;;
22711;SDS011;11523;50.390;8.072;2022-12-18T10:35:53;48.35;;;25.73;;
22711;SDS011;11523;50.390;8.072;2022-12-18T10:38:30;46.30;;;22.23;;
22711;SDS011;11523;50.390;8.072;2022-12-18T10:43:32;45.00;;;24.00;;
22711;SDS011;11523;50.390;8.072;2022-12-18T10:48:25;42.83;;;24.90;;
22711;SDS011;11523;50.390;8.072;2022-12-18T10:50:51;41.05;;;24.52;;
22711;SDS011;11523;50.390;8.072;2022-12-18T10:53:24;45.90;;;25.73;;
22711;SDS011;11523;50.390;8.072;2022-12-18T10:56:04;44.75;;;23.35;;
22711;SDS011;11523;50.390;8.072;2022-12-18T10:58:38;47.80;;;25.08;;
22711;SDS011;11523;50.390;8.072;2022-12-18T11:03:34;38.75;;;23.02;;
22711;SDS011;11523;50.390;8.072;2022-12-18T11:06:02;37.65;;;24.13;;
22711;SDS011;11523;50.390;8.072;2022-12-18T11:08:28;42.78;;;23.48;;
22711;SDS011;11523;50.390;8.072;2022-12-18T11:10:54;37.28;;;22.02;;
22711;SDS011;11523;50.390;8.072;2022-12-18T11:13:27;39.95;;;24.58;;
22711;SDS011;11523;50.390;8.072;2022-12-18T11:15:53;39.88;;;22.92;;
22711;SDS011;11523;50.390;8.072;2022-12-18T11:18:27;41.65;;;23.95;;
22711;SDS011;11523;50.390;8.072;2022-12-18T11:21:26;36.63;;;22.08;;
22711;SDS011;11523;50.390;8.072;2022-12-18T11:23:52;44.42;;;24.52;;
22711;SDS011;11523;50.390;8.072;2022-12-18T11:26:18;41.13;;;25.10;;
22711;SDS011;11523;50.390;8.072;2022-12-18T11:28:47;42.75;;;24.45;;
22711;SDS011;11523;50.390;8.072;2022-12-18T11:31:25;42.65;;;23.75;;
22711;SDS011;11523;50.390;8.072;2022-12-18T11:36:44;41.70;;;25.08;;
22711;SDS011;11523;50.390;8.072;2022-12-18T11:41:56;39.22;;;23.25;;
22711;SDS011;11523;50.390;8.072;2022-12-18T11:44:44;41.83;;;25.08;;
22711;SDS011;11523;50.390;8.072;2022-12-18T11:47:23;54.33;;;32.72;;
22711;SDS011;11523;50.390;8.072;2022-12-18T11:49:50;64.78;;;34.03;;
22711;SDS011;11523;50.390;8.072;2022-12-18T11:52:24;54.90;;;29.45;;
22711;SDS011;11523;50.390;8.072;2022-12-18T11:54:52;73.32;;;36.67;;
22711;SDS011;11523;50.390;8.072;2022-12-18T12:05:21;106.28;;;46.50;;
22711;SDS011;11523;50.390;8.072;2022-12-18T12:10:39;53.92;;;29.27;;
22711;SDS011;11523;50.390;8.072;2022-12-18T12:15:50;47.28;;;28.45;;
22711;SDS011;11523;50.390;8.072;2022-12-18T12:21:07;37.88;;;22.98;;
22711;SDS011;11523;50.390;8.072;2022-12-18T12:23:40;39.28;;;24.02;;
22711;SDS011;11523;50.390;8.072;2022-12-18T12:26:10;40.28;;;24.52;;
22711;SDS011;11523;50.390;8.072;2022-12-18T12:31:19;41.53;;;25.17;;
22711;SDS011;11523;50.390;8.072;2022-12-18T12:33:54;39.88;;;25.13;;
22711;SDS011;11523;50.390;8.072;2022-12-18T12:36:28;40.28;;;23.65;;
22711;SDS011;11523;50.390;8.072;2022-12-18T12:38:57;44.40;;;25.35;;
22711;SDS011;11523;50.390;8.072;2022-12-18T12:41:24;43.30;;;27.88;;
22711;SDS011;11523;50.390;8.072;2022-12-18T12:44:13;46.30;;;27.83;;
22711;SDS011;11523;50.390;8.072;2022-12-18T12:46:40;48.90;;;27.48;;
22711;SDS011;11523;50.390;8.072;2022-12-18T12:49:14;43.28;;;26.52;;
22711;SDS011;11523;50.390;8.072;2022-12-18T12:51:45;44.80;;;28.75;;
22711;SDS011;11523;50.390;8.072;2022-12-18T12:54:14;46.05;;;28.92;;
22711;SDS011;11523;50.390;8.072;2022-12-18T12:56:47;48.42;;;29.05;;
22711;SDS011;11523;50.390;8.072;2022-12-18T12:59:26;45.80;;;27.85;;
22711;SDS011;11523;50.390;8.072;2022-12-18T13:01:56;49.15;;;30.17;;
22711;SDS011;11523;50.390;8.072;2022-12-18T13:04:27;48.35;;;30.42;;
22711;SDS011;11523;50.390;8.072;2022-12-18T13:07:01;50.72;;;31.45;;
22711;SDS011;11523;50.390;8.072;2022-12-18T13:09:30;45.45;;;30.42;;
22711;SDS011;11523;50.390;8.072;2022-12-18T13:12:00;47.55;;;30.83;;
22711;SDS011;11523;50.390;8.072;2022-12-18T13:14:46;48.33;;;28.02;;
22711;SDS011;11523;50.390;8.072;2022-12-18T13:19:49;47.40;;;30.95;;
22711;SDS011;11523;50.390;8.072;2022-12-18T13:22:22;48.28;;;30.75;;
22711;SDS011;11523;50.390;8.072;2022-12-18T13:24:49;48.50;;;31.70;;
22711;SDS011;11523;50.390;8.072;2022-12-18T13:30:00;52.75;;;30.30;;
22711;SDS011;11523;50.390;8.072;2022-12-18T13:32:26;49.00;;;29.23;;
22711;SDS011;11523;50.390;8.072;2022-12-18T13:37:44;51.67;;;33.10;;
22711;SDS011;11523;50.390;8.072;2022-12-18T13:40:42;50.83;;;29.35;;
22711;SDS011;11523;50.390;8.072;2022-12-18T13:45:49;51.70;;;30.42;;
22711;SDS011;11523;50.390;8.072;2022-12-18T13:48:19;50.08;;;30.85;;
22711;SDS011;11523;50.390;8.072;2022-12-18T13:50:52;47.13;;;28.73;;
22711;SDS011;11523;50.390;8.072;2022-12-18T13:53:23;53.47;;;31.63;;
22711;SDS011;11523;50.390;8.072;2022-12-18T13:55:50;51.08;;;30.85;;
22711;SDS011;11523;50.390;8.072;2022-12-18T13:58:16;49.50;;;28.48;;
22711;SDS011;11523;50.390;8.072;2022-12-18T14:00:42;50.53;;;28.90;;
22711;SDS011;11523;50.390;8.072;2022-12-18T14:03:19;51.35;;;28.83;;
22711;SDS011;11523;50.390;8.072;2022-12-18T14:05:45;52.35;;;31.65;;
22711;SDS011;11523;50.390;8.072;2022-12-18T14:08:12;50.63;;;29.48;;
22711;SDS011;11523;50.390;8.072;2022-12-18T14:10:40;49.55;;;28.63;;
22711;SDS011;11523;50.390;8.072;2022-12-18T14:13:07;52.75;;;30.13;;
22711;SDS011;11523;50.390;8.072;2022-12-18T14:15:40;50.17;;;27.80;;
22711;SDS011;11523;50.390;8.072;2022-12-18T14:20:43;50.00;;;28.90;;
22711;SDS011;11523;50.390;8.072;2022-12-18T14:26:20;50.10;;;29.17;;
22711;SDS011;11523;50.390;8.072;2022-12-18T14:28:46;46.90;;;28.23;;
22711;SDS011;11523;50.390;8.072;2022-12-18T14:31:21;47.85;;;27.92;;
22711;SDS011;11523;50.390;8.072;2022-12-18T14:33:48;48.33;;;24.70;;
22711;SDS011;11523;50.390;8.072;2022-12-18T14:36:15;50.58;;;29.83;;
22711;SDS011;11523;50.390;8.072;2022-12-18T14:38:42;49.55;;;27.92;;
22711;SDS011;11523;50.390;8.072;2022-12-18T14:41:15;53.33;;;29.25;;
22711;SDS011;11523;50.390;8.072;2022-12-18T14:43:42;50.05;;;26.55;;
22711;SDS011;11523;50.390;8.072;2022-12-18T14:48:49;47.45;;;26.85;;
22711;SDS011;11523;50.390;8.072;2022-12-18T14:51:36;53.17;;;29.15;;
22711;SDS011;11523;50.390;8.072;2022-12-18T14:54:02;49.60;;;27.23;;
22711;SDS011;11523;50.390;8.072;2022-12-18T14:56:36;48.50;;;27.23;;
22711;SDS011;11523;50.390;8.072;2022-12-18T14:59:15;51.10;;;26.95;;
22711;SDS011;11523;50.390;8.072;2022-12-18T15:01:46;56.83;;;30.55;;
22711;SDS011;11523;50.390;8.072;2022-12-18T15:04:23;48.83;;;27.55;;
22711;SDS011;11523;50.390;8.072;2022-12-18T15:07:01;60.30;;;31.55;;
22711;SDS011;11523;50.390;8.072;2022-12-18T15:09:27;50.10;;;27.33;;
22711;SDS011;11523;50.390;8.072;2022-12-18T15:11:57;57.40;;;31.00;;
22711;SDS011;11523;50.390;8.072;2022-12-18T15:16:56;56.13;;;30.40;;
22711;SDS011;11523;50.390;8.072;2022-12-18T15:19:25;57.83;;;30.35;;
22711;SDS011;11523;50.390;8.072;2022-12-18T15:21:53;59.95;;;29.75;;
22711;SDS011;11523;50.390;8.072;2022-12-18T15:24:21;58.25;;;32.60;;
22711;SDS011;11523;50.390;8.072;2022-12-18T15:26:49;57.33;;;31.80;;
22711;SDS011;11523;50.390;8.072;2022-12-18T15:29:18;60.88;;;34.50;;
22711;SDS011;11523;50.390;8.072;2022-12-18T15:31:45;62.30;;;32.20;;
22711;SDS011;11523;50.390;8.072;2022-12-18T15:34:23;61.05;;;32.40;;
22711;SDS011;11523;50.390;8.072;2022-12-18T15:36:50;55.22;;;29.23;;
22711;SDS011;11523;50.390;8.072;2022-12-18T15:39:16;54.50;;;30.25;;
22711;SDS011;11523;50.390;8.072;2022-12-18T15:41:42;58.63;;;31.35;;
22711;SDS011;11523;50.390;8.072;2022-12-18T15:44:28;60.28;;;30.77;;
22711;SDS011;11523;50.390;8.072;2022-12-18T15:46:54;56.88;;;29.88;;
22711;SDS011;11523;50.390;8.072;2022-12-18T15:49:20;61.53;;;31.25;;
22711;SDS011;11523;50.390;8.072;2022-12-18T15:51:46;59.72;;;34.05;;
22711;SDS011;11523;50.390;8.072;2022-12-18T15:54:14;54.75;;;29.58;;
22711;SDS011;11523;50.390;8.072;2022-12-18T15:56:41;54.67;;;30.00;;
22711;SDS011;11523;50.390;8.072;2022-12-18T15:59:26;55.22;;;29.52;;
22711;SDS011;11523;50.390;8.072;2022-12-18T16:01:52;58.70;;;28.90;;
22711;SDS011;11523;50.390;8.072;2022-12-18T16:04:19;48.85;;;28.25;;
22711;SDS011;11523;50.390;8.072;2022-12-18T16:06:45;62.42;;;31.48;;
22711;SDS011;11523;50.390;8.072;2022-12-18T16:09:11;52.60;;;28.30;;
22711;SDS011;11523;50.390;8.072;2022-12-18T16:11:38;60.88;;;31.00;;
22711;SDS011;11523;50.390;8.072;2022-12-18T16:16:44;60.70;;;31.85;;
22711;SDS011;11523;50.390;8.072;2022-12-18T16:19:09;56.28;;;29.98;;
22711;SDS011;11523;50.390;8.072;2022-12-18T16:21:35;64.93;;;33.47;;
22711;SDS011;11523;50.390;8.072;2022-12-18T16:24:01;62.55;;;33.25;;
22711;SDS011;11523;50.390;8.072;2022-12-18T16:26:27;59.28;;;32.33;;
22711;SDS011;11523;50.390;8.072;2022-12-18T16:28:53;54.47;;;29.67;;
22711;SDS011;11523;50.390;8.072;2022-12-18T16:31:19;60.78;;;30.05;;
22711;SDS011;11523;50.390;8.072;2022-12-18T16:33:45;56.72;;;29.17;;
22711;SDS011;11523;50.390;8.072;2022-12-18T16:36:12;61.90;;;31.05;;
22711;SDS011;11523;50.390;8.072;2022-12-18T16:38:38;54.83;;;29.42;;
22711;SDS011;11523;50.390;8.072;2022-12-18T16:41:15;53.88;;;29.50;;
22711;SDS011;11523;50.390;8.072;2022-12-18T16:43:58;57.92;;;28.48;;
22711;SDS011;11523;50.390;8.072;2022-12-18T16:46:25;54.53;;;29.60;;
22711;SDS011;11523;50.390;8.072;2022-12-18T16:48:50;53.20;;;29.30;;
22711;SDS011;11523;50.390;8.072;2022-12-18T16:51:16;56.20;;;29.00;;
22711;SDS011;11523;50.390;8.072;2022-12-18T16:53:42;56.50;;;28.85;;
22711;SDS011;11523;50.390;8.072;2022-12-18T16:56:08;54.45;;;27.65;;
22711;SDS011;11523;50.390;8.072;2022-12-18T16:58:34;55.45;;;29.05;;
22711;SDS011;11523;50.390;8.072;2022-12-18T17:01:00;58.83;;;29.45;;
22711;SDS011;11523;50.390;8.072;2022-12-18T17:03:26;57.10;;;29.85;;
22711;SDS011;11523;50.390;8.072;2022-12-18T17:05:52;52.55;;;28.23;;
22711;SDS011;11523;50.390;8.072;2022-12-18T17:08:18;56.53;;;29.25;;
22711;SDS011;11523;50.390;8.072;2022-12-18T17:10:44;59.78;;;31.48;;
22711;SDS011;11523;50.390;8.072;2022-12-18T17:13:10;56.75;;;30.15;;
22711;SDS011;11523;50.390;8.072;2022-12-18T17:15:36;55.33;;;30.45;;
22711;SDS011;11523;50.390;8.072;2022-12-18T17:18:02;56.60;;;32.15;;
22711;SDS011;11523;50.390;8.072;2022-12-18T17:20:31;59.65;;;31.42;;
22711;SDS011;11523;50.390;8.072;2022-12-18T17:22:57;56.58;;;30.13;;
22711;SDS011;11523;50.390;8.072;2022-12-18T17:25:23;63.75;;;33.63;;
22711;SDS011;11523;50.390;8.072;2022-12-18T17:27:49;56.88;;;31.45;;
22711;SDS011;11523;50.390;8.072;2022-12-18T17:30:15;61.50;;;30.38;;
22711;SDS011;11523;50.390;8.072;2022-12-18T17:32:41;55.50;;;27.92;;
22711;SDS011;11523;50.390;8.072;2022-12-18T17:35:07;60.72;;;29.67;;
22711;SDS011;11523;50.390;8.072;2022-12-18T17:37:33;63.78;;;34.00;;
22711;SDS011;11523;50.390;8.072;2022-12-18T17:39:59;61.90;;;30.92;;
22711;SDS011;11523;50.390;8.072;2022-12-18T17:42:25;62.45;;;34.88;;
22711;SDS011;11523;50.390;8.072;2022-12-18T17:44:51;62.97;;;34.38;;
22711;SDS011;11523;50.390;8.072;2022-12-18T17:47:17;54.33;;;28.98;;
22711;SDS011;11523;50.390;8.072;2022-12-18T17:49:43;61.53;;;31.10;;
22711;SDS011;11523;50.390;8.072;2022-12-18T17:52:09;61.42;;;30.10;;
22711;SDS011;11523;50.390;8.072;2022-12-18T17:54:35;61.00;;;31.60;;
22711;SDS011;11523;50.390;8.072;2022-12-18T17:57:03;61.42;;;31.15;;
22711;SDS011;11523;50.390;8.072;2022-12-18T17:59:29;72.32;;;34.33;;
22711;SDS011;11523;50.390;8.072;2022-12-18T18:01:56;60.92;;;30.42;;
22711;SDS011;11523;50.390;8.072;2022-12-18T18:04:22;61.78;;;30.60;;
22711;SDS011;11523;50.390;8.072;2022-12-18T18:06:47;58.05;;;28.52;;
22711;SDS011;11523;50.390;8.072;2022-12-18T18:09:13;59.35;;;30.40;;
22711;SDS011;11523;50.390;8.072;2022-12-18T18:11:39;61.00;;;31.48;;
22711;SDS011;11523;50.390;8.072;2022-12-18T18:14:24;68.40;;;33.47;;
22711;SDS011;11523;50.390;8.072;2022-12-18T18:16:51;64.38;;;30.65;;
22711;SDS011;11523;50.390;8.072;2022-12-18T18:19:18;62.95;;;30.60;;
22711;SDS011;11523;50.390;8.072;2022-12-18T18:21:45;61.00;;;30.85;;
22711;SDS011;11523;50.390;8.072;2022-12-18T18:24:12;56.35;;;29.02;;
22711;SDS011;11523;50.390;8.072;2022-12-18T18:26:38;57.45;;;29.48;;
22711;SDS011;11523;50.390;8.072;2022-12-18T18:29:06;75.35;;;38.95;;
22711;SDS011;11523;50.390;8.072;2022-12-18T18:31:32;58.22;;;30.85;;
22711;SDS011;11523;50.390;8.072;2022-12-18T18:33:59;72.80;;;37.33;;
22711;SDS011;11523;50.390;8.072;2022-12-18T18:36:25;72.57;;;33.88;;
22711;SDS011;11523;50.390;8.072;2022-12-18T18:38:52;58.58;;;29.40;;
22711;SDS011;11523;50.390;8.072;2022-12-18T18:41:18;60.67;;;29.88;;
22711;SDS011;11523;50.390;8.072;2022-12-18T18:43:44;58.83;;;31.05;;
22711;SDS011;11523;50.390;8.072;2022-12-18T18:46:11;61.85;;;32.08;;
22711;SDS011;11523;50.390;8.072;2022-12-18T18:48:37;61.30;;;30.30;;
22711;SDS011;11523;50.390;8.072;2022-12-18T18:53:30;66.20;;;31.98;;
22711;SDS011;11523;50.390;8.072;2022-12-18T18:55:57;61.28;;;31.65;;
22711;SDS011;11523;50.390;8.072;2022-12-18T18:58:23;61.53;;;31.90;;
22711;SDS011;11523;50.390;8.072;2022-12-18T19:00:55;59.92;;;30.65;;
22711;SDS011;11523;50.390;8.072;2022-12-18T19:03:21;59.60;;;30.35;;
22711;SDS011;11523;50.390;8.072;2022-12-18T19:05:52;62.35;;;32.03;;
22711;SDS011;11523;50.390;8.072;2022-12-18T19:08:20;62.63;;;32.40;;
22711;SDS011;11523;50.390;8.072;2022-12-18T19:10:46;61.05;;;31.63;;
22711;SDS011;11523;50.390;8.072;2022-12-18T19:13:12;64.22;;;32.22;;
22711;SDS011;11523;50.390;8.072;2022-12-18T19:15:48;71.68;;;34.83;;
22711;SDS011;11523;50.390;8.072;2022-12-18T19:18:14;59.08;;;31.13;;
22711;SDS011;11523;50.390;8.072;2022-12-18T19:20:40;60.13;;;31.33;;
22711;SDS011;11523;50.390;8.072;2022-12-18T19:23:06;61.42;;;31.15;;
22711;SDS011;11523;50.390;8.072;2022-12-18T19:25:35;62.45;;;32.55;;
22711;SDS011;11523;50.390;8.072;2022-12-18T19:28:01;59.75;;;31.15;;
22711;SDS011;11523;50.390;8.072;2022-12-18T19:30:27;59.92;;;31.73;;
22711;SDS011;11523;50.390;8.072;2022-12-18T19:32:53;61.60;;;31.10;;
22711;SDS011;11523;50.390;8.072;2022-12-18T19:35:19;64.68;;;32.38;;
22711;SDS011;11523;50.390;8.072;2022-12-18T19:37:45;62.03;;;33.47;;
22711;SDS011;11523;50.390;8.072;2022-12-18T19:40:11;62.30;;;33.08;;